Time;durP1;ratioP1;P1;durP2;ratioP2;P2;SDS_P1;SDS_P2;PMS_P1;PMS_P2;Temp;Humidity;BMP_temperature;BMP_pressure;BME280_temperature;BME280_humidity;BME280_pressure;Samples;Min_cycle;Max_cycle;Signal;HPM_P1;HPM_P2
2023/10/23 00:02:24;;;;;;;7.67;6.40;;;11.70;94.70;;;13.03;70.22;101155.50;3080354;46;20427;-67
2023/10/23 00:04:52;;;;;;;6.93;6.23;;;11.60;94.80;;;12.97;70.35;101151.78;3080473;46;20456;-65
2023/10/23 00:07:21;;;;;;;8.07;6.63;;;11.60;94.80;;;12.92;70.46;101143.56;3080543;46;20514;-67
2023/10/23 00:09:49;;;;;;;8.50;6.60;;;11.60;94.80;;;12.87;70.83;101143.28;3080142;46;21036;-66
2023/10/23 00:12:18;;;;;;;8.57;6.30;;;11.60;94.90;;;12.85;70.68;101147.91;3080571;46;20557;-67
2023/10/23 00:14:46;;;;;;;7.17;6.47;;;11.50;94.90;;;12.83;70.86;101144.63;3080444;46;20536;-67
2023/10/23 00:17:15;;;;;;;6.87;6.17;;;11.50;95.00;;;12.84;70.60;101149.75;3080795;46;20427;-66
2023/10/23 00:19:43;;;;;;;7.83;6.00;;;11.40;95.00;;;12.86;70.43;101152.19;3079605;46;20509;-68
2023/10/23 00:22:11;;;;;;;6.83;6.13;;;11.40;95.10;;;12.88;70.72;101147.56;3082846;46;20523;-67
2023/10/23 00:24:40;;;;;;;7.60;6.03;;;11.40;95.10;;;12.89;70.35;101154.47;3083045;46;21108;-66
2023/10/23 00:27:08;;;;;;;7.60;6.47;;;11.40;95.10;;;12.91;70.46;101152.47;3083155;46;20428;-67
2023/10/23 00:29:37;;;;;;;7.70;6.90;;;11.40;95.20;;;12.92;70.17;101167.34;3082344;46;20449;-63
2023/10/23 00:32:05;;;;;;;7.90;7.20;;;11.40;95.20;;;12.91;70.46;101168.31;3083064;46;20426;-67
2023/10/23 00:34:34;;;;;;;7.37;6.63;;;11.40;95.30;;;12.85;70.68;101163.78;3082860;46;20498;-64
2023/10/23 00:37:03;;;;;;;8.27;7.47;;;11.40;95.20;;;12.79;70.91;101159.19;3082481;46;21077;-67
2023/10/23 00:39:31;;;;;;;11.00;7.87;;;11.40;95.20;;;12.74;70.68;101161.56;3082534;46;20509;-67
2023/10/23 00:41:59;;;;;;;8.27;7.47;;;11.30;95.10;;;12.71;70.96;101177.75;3082693;46;20426;-66
2023/10/23 00:44:28;;;;;;;8.53;7.67;;;11.30;95.20;;;12.67;71.46;101165.91;3082587;46;20427;-66
2023/10/23 00:46:57;;;;;;;8.20;7.10;;;11.30;95.30;;;12.65;71.37;101167.88;3082687;46;20463;-66
2023/10/23 00:49:25;;;;;;;8.80;7.13;;;11.30;95.30;;;12.62;71.30;101173.53;3081982;46;20583;-67
2023/10/23 00:51:54;;;;;;;7.47;6.73;;;11.20;95.40;;;12.58;71.57;101182.81;3082229;46;20498;-68
2023/10/23 00:54:24;;;;;;;8.30;7.57;;;11.20;95.50;;;12.54;71.94;101177.06;3082962;46;21093;-69
2023/10/23 00:56:53;;;;;;;9.20;8.07;;;11.20;95.60;;;12.50;71.93;101180.22;3082109;46;20455;-67
2023/10/23 00:59:22;;;;;;;8.90;7.00;;;11.20;95.60;;;12.49;71.51;101179.41;3081756;46;20451;-67
2023/10/23 01:01:51;;;;;;;10.03;7.80;;;11.10;95.60;;;12.49;72.03;101189.13;3081349;46;20473;-67
2023/10/23 01:04:20;;;;;;;8.40;7.60;;;11.10;95.70;;;12.49;71.94;101194.41;3082678;46;21006;-67
2023/10/23 01:06:50;;;;;;;10.77;7.87;;;11.00;95.70;;;12.46;72.16;101178.91;3082791;46;20515;-67
2023/10/23 01:09:18;;;;;;;8.47;7.33;;;11.00;95.80;;;12.45;72.15;101185.22;3082234;46;20439;-67
2023/10/23 01:11:47;;;;;;;8.57;7.80;;;11.00;95.80;;;12.42;71.99;101199.59;3082128;46;20534;-67
2023/10/23 01:14:15;;;;;;;8.57;7.70;;;11.00;95.80;;;12.41;72.41;101190.00;3082407;46;20457;-67
2023/10/23 01:16:44;;;;;;;9.73;8.17;;;11.00;95.90;;;12.39;72.40;101193.81;3082245;46;20431;-66
2023/10/23 01:19:12;;;;;;;9.40;8.37;;;11.00;96.00;;;12.36;72.73;101187.06;3082300;46;20540;-67
2023/10/23 01:21:40;;;;;;;9.17;8.20;;;11.00;96.00;;;12.35;72.75;101198.66;3081616;46;21113;-67
2023/10/23 01:24:11;;;;;;;9.33;8.03;;;10.90;96.00;;;12.36;72.38;101194.19;3082798;46;20509;-68
2023/10/23 01:26:39;;;;;;;9.60;7.67;;;10.90;96.00;;;12.39;72.33;101199.09;3082409;46;20992;-67
2023/10/23 01:29:08;;;;;;;11.20;7.27;;;10.90;96.10;;;12.41;72.20;101192.66;3082216;46;20455;-68
2023/10/23 01:31:36;;;;;;;10.43;8.03;;;10.90;96.10;;;12.46;72.62;101189.47;3081922;46;20484;-67
2023/10/23 01:34:04;;;;;;;9.10;8.20;;;10.90;96.30;;;12.49;71.82;101189.97;3082455;46;20534;-67
2023/10/23 01:36:33;;;;;;;9.90;8.37;;;10.90;96.30;;;12.54;72.19;101195.53;3081841;46;20448;-66
2023/10/23 01:39:01;;;;;;;13.40;8.63;;;11.00;96.40;;;12.60;72.25;101199.31;3081858;46;20496;-66
2023/10/23 01:41:29;;;;;;;10.83;8.13;;;11.00;96.30;;;12.62;71.86;101198.09;3080233;46;20569;-67
2023/10/23 01:43:58;;;;;;;11.67;8.67;;;11.00;96.40;;;12.63;71.83;101191.84;3080779;46;20473;-67
2023/10/23 01:46:26;;;;;;;9.27;8.37;;;11.00;96.30;;;12.64;71.96;101203.22;3082422;46;20427;-67
2023/10/23 01:48:55;;;;;;;9.50;8.60;;;11.10;96.30;;;12.63;71.89;101201.56;3081899;46;20427;-67
2023/10/23 01:51:23;;;;;;;11.67;9.20;;;11.10;96.20;;;12.57;71.81;101203.13;3081591;46;20427;-66
2023/10/23 01:53:52;;;;;;;10.50;8.73;;;11.10;96.10;;;12.52;71.89;101194.91;3082102;46;21015;-67
2023/10/23 01:56:20;;;;;;;11.63;8.70;;;11.10;96.00;;;12.49;71.82;101194.41;3082345;46;20427;-67
2023/10/23 01:58:50;;;;;;;9.23;8.33;;;11.00;95.90;;;12.48;72.06;101206.00;3081701;46;20432;-66
2023/10/23 02:01:23;;;;;;;11.43;8.83;;;11.00;96.00;;;12.43;72.01;101205.69;3081393;46;21118;-67
2023/10/23 02:03:52;;;;;;;11.40;9.13;;;11.00;96.10;;;12.40;72.45;101206.03;3082165;46;20520;-68
2023/10/23 02:06:20;;;;;;;14.07;9.10;;;10.90;96.10;;;12.36;72.45;101210.03;3082130;46;20452;-67
2023/10/23 02:08:49;;;;;;;11.03;9.03;;;11.00;96.10;;;12.32;72.43;101214.00;3081730;46;20432;-67
2023/10/23 02:11:17;;;;;;;10.13;9.13;;;10.90;96.10;;;12.31;72.58;101207.09;3081192;46;20440;-67
2023/10/23 02:13:46;;;;;;;11.70;9.23;;;10.90;96.10;;;12.30;72.60;101216.00;3081914;46;21106;-68
2023/10/23 02:16:14;;;;;;;11.93;9.43;;;10.80;96.10;;;12.31;72.67;101213.19;3081922;46;20490;-67
2023/10/23 02:18:42;;;;;;;10.83;9.10;;;10.80;96.20;;;12.32;72.47;101214.00;3081488;46;20516;-67
2023/10/23 02:21:11;;;;;;;14.03;9.87;;;10.80;96.30;;;12.32;72.85;101211.34;3080575;46;20459;-67
2023/10/23 02:23:39;;;;;;;10.50;9.37;;;10.80;96.30;;;12.28;72.64;101213.53;3081982;46;20455;-66
2023/10/23 02:26:23;;;;;;;11.47;9.57;;;10.80;96.40;;;12.22;72.94;101215.03;3081896;46;20428;-67
2023/10/23 02:28:52;;;;;;;13.00;10.43;;;10.80;96.40;;;12.20;72.95;101227.59;3080623;46;20435;-68
2023/10/23 02:31:22;;;;;;;11.17;9.83;;;10.80;96.40;;;12.16;73.20;101228.94;3081512;46;20431;-67
2023/10/23 02:33:51;;;;;;;14.97;10.47;;;10.80;96.50;;;12.13;73.33;101213.44;3082393;46;21026;-67
2023/10/23 02:36:19;;;;;;;12.40;10.70;;;10.70;96.40;;;12.12;73.29;101222.34;3080400;46;21097;-68
2023/10/23 02:38:48;;;;;;;11.77;10.00;;;10.70;96.40;;;12.11;73.25;101226.00;3081408;46;20511;-66
2023/10/23 02:41:16;;;;;;;13.80;11.50;;;10.70;96.50;;;12.12;73.22;101230.25;3080972;46;20439;-66
2023/10/23 02:43:45;;;;;;;11.27;10.10;;;10.60;96.50;;;12.12;73.25;101232.09;3080958;46;20423;-64
2023/10/23 02:46:14;;;;;;;13.83;11.00;;;10.60;96.50;;;12.11;73.28;101239.19;3081661;46;20541;-66
2023/10/23 02:48:43;;;;;;;16.03;11.20;;;10.60;96.60;;;12.11;73.29;101238.34;3081370;46;20458;-66
2023/10/23 02:51:11;;;;;;;12.27;10.97;;;10.60;96.60;;;12.08;73.63;101228.97;3080193;46;20489;-68
2023/10/23 02:53:40;;;;;;;12.87;11.47;;;10.60;96.70;;;12.02;73.86;101234.94;3081219;46;20432;-66
2023/10/23 02:56:13;;;;;;;16.40;11.17;;;10.60;97.10;;;11.98;73.97;101241.53;3081636;46;20455;-68
2023/10/23 02:58:41;;;;;;;12.60;11.23;;;10.60;96.90;;;11.97;74.08;101247.00;3080760;46;20452;-66
2023/10/23 03:01:20;;;;;;;15.00;12.20;;;10.60;96.80;;;11.95;74.18;101255.09;3080971;46;20442;-66
2023/10/23 03:03:50;;;;;;;13.97;11.87;;;10.60;96.90;;;11.96;74.25;101245.34;3081594;46;20456;-67
2023/10/23 03:06:19;;;;;;;16.17;12.37;;;10.60;97.00;;;11.96;73.95;101256.72;3081449;46;20457;-66
2023/10/23 03:08:48;;;;;;;14.20;11.53;;;10.50;96.90;;;11.96;74.21;101243.53;3081216;46;20528;-66
2023/10/23 03:11:16;;;;;;;16.10;10.87;;;10.60;97.00;;;11.99;73.82;101247.63;3080594;46;20439;-66
2023/10/23 03:13:45;;;;;;;15.20;11.50;;;10.50;96.90;;;12.02;73.69;101250.78;3081526;46;20427;-65
2023/10/23 03:16:14;;;;;;;13.67;11.07;;;10.50;97.00;;;12.05;73.83;101255.69;3081314;46;20556;-66
2023/10/23 03:18:43;;;;;;;13.33;10.50;;;10.50;97.10;;;12.11;74.10;101260.28;3081017;46;20520;-67
2023/10/23 03:21:11;;;;;;;13.47;10.17;;;10.50;97.20;;;12.19;74.05;101252.31;3080767;46;20459;-66
2023/10/23 03:23:40;;;;;;;11.23;9.80;;;10.60;97.50;;;12.31;74.36;101259.88;3081362;46;20427;-63
2023/10/23 03:26:08;;;;;;;12.03;10.33;;;10.60;97.70;;;12.41;74.01;101252.56;3081198;46;20452;-66
2023/10/23 03:28:36;;;;;;;12.97;10.87;;;10.70;97.70;;;12.51;74.13;101258.44;3080567;46;20432;-68
2023/10/23 03:31:05;;;;;;;12.27;10.20;;;10.80;97.70;;;12.60;73.85;101254.78;3080298;46;20573;-67
2023/10/23 03:33:33;;;;;;;14.53;10.07;;;10.90;97.70;;;12.68;73.59;101258.16;3080773;46;21016;-66
2023/10/23 03:36:02;;;;;;;13.20;10.97;;;11.00;97.60;;;12.76;73.62;101257.28;3080445;46;20431;-66
2023/10/23 03:38:30;;;;;;;13.23;11.50;;;11.00;97.50;;;12.81;72.96;101262.88;3080127;46;20431;-67
2023/10/23 03:40:59;;;;;;;14.30;11.23;;;11.10;97.30;;;12.86;73.11;101257.84;3080330;46;20532;-66
2023/10/23 03:43:28;;;;;;;11.73;9.93;;;11.20;97.20;;;12.91;72.86;101260.78;3080897;46;20501;-68
2023/10/23 03:46:02;;;;;;;11.93;10.73;;;11.20;97.00;;;12.93;72.38;101267.56;3080587;46;20432;-67
2023/10/23 03:48:35;;;;;;;13.13;11.03;;;11.30;96.90;;;12.96;72.23;101261.09;3080861;46;20428;-67
2023/10/23 03:51:04;;;;;;;12.40;11.03;;;11.30;96.70;;;12.96;71.80;101260.25;3079625;46;20482;-66
2023/10/23 03:53:33;;;;;;;12.40;11.07;;;11.30;96.50;;;12.91;71.57;101258.16;3080961;46;20503;-67
2023/10/23 03:56:06;;;;;;;13.17;11.03;;;11.30;96.30;;;12.83;71.63;101263.53;3082040;46;20466;-67
2023/10/23 03:58:34;;;;;;;13.00;11.43;;;11.30;96.10;;;12.79;71.78;101249.00;3083200;46;20438;-67
2023/10/23 04:01:03;;;;;;;14.47;11.90;;;11.30;96.10;;;12.77;71.66;101258.91;3082463;46;20465;-65
2023/10/23 04:03:31;;;;;;;14.17;12.43;;;11.30;96.10;;;12.73;71.43;101265.56;3082956;46;21182;-67
2023/10/23 04:06:03;;;;;;;14.20;11.43;;;11.20;96.00;;;12.72;71.73;101269.19;3083440;46;20513;-68
2023/10/23 04:08:32;;;;;;;14.03;11.37;;;11.20;96.10;;;12.73;72.14;101276.13;3083030;46;21005;-66
2023/10/23 04:11:00;;;;;;;13.23;11.20;;;11.20;96.30;;;12.77;71.87;101266.84;3082770;46;20450;-67
2023/10/23 04:13:29;;;;;;;13.17;10.50;;;11.20;96.40;;;12.79;71.88;101275.41;3082978;46;21114;-66
2023/10/23 04:15:58;;;;;;;11.10;9.83;;;11.20;96.40;;;12.84;71.90;101278.34;3082707;46;20424;-66
2023/10/23 04:18:27;;;;;;;14.90;10.17;;;11.20;96.60;;;12.87;72.07;101272.72;3083114;46;20426;-66
2023/10/23 04:21:07;;;;;;;12.07;10.77;;;11.30;96.50;;;12.88;71.62;101272.53;3082071;46;20439;-66
2023/10/23 04:23:39;;;;;;;13.57;11.37;;;11.30;96.50;;;12.93;71.60;101267.56;3083021;46;20440;-67
2023/10/23 04:26:08;;;;;;;13.07;11.47;;;11.30;96.40;;;12.99;71.55;101276.59;3083014;46;20432;-67
2023/10/23 04:28:37;;;;;;;14.80;11.30;;;11.40;96.30;;;13.02;71.51;101276.25;3082749;46;20622;-66
2023/10/23 04:31:05;;;;;;;11.83;10.40;;;11.40;96.30;;;13.04;71.27;101273.44;3082218;46;20438;-66
2023/10/23 04:33:34;;;;;;;15.10;12.23;;;11.40;96.20;;;13.03;70.74;101282.34;3082826;46;20522;-66
2023/10/23 04:36:03;;;;;;;14.60;11.67;;;11.40;95.80;;;12.99;70.44;101284.53;3082853;46;20427;-67
2023/10/23 04:38:31;;;;;;;15.83;11.87;;;11.40;95.70;;;12.94;70.34;101286.88;3082399;46;20448;-65
2023/10/23 04:41:00;;;;;;;14.13;11.23;;;11.40;95.50;;;12.85;70.13;101287.94;3082209;46;20525;-66
2023/10/23 04:43:28;;;;;;;15.30;11.60;;;11.40;95.30;;;12.73;70.00;101289.34;3082718;46;20485;-66
2023/10/23 04:45:57;;;;;;;19.00;12.57;;;11.30;95.00;;;12.59;70.08;101298.00;3082404;46;20455;-66
2023/10/23 04:48:26;;;;;;;31.17;12.03;;;11.20;94.90;;;12.45;70.30;101294.28;3082469;46;20573;-64
2023/10/23 04:50:59;;;;;;;41.27;12.33;;;11.10;94.80;;;12.30;70.35;101292.53;3082076;46;20439;-66
2023/10/23 04:53:28;;;;;;;22.60;10.93;;;11.00;94.80;;;12.16;70.75;101287.00;3082580;46;20427;-66
2023/10/23 04:55:58;;;;;;;27.43;11.90;;;10.90;94.90;;;12.05;71.10;101295.25;3082987;46;21062;-67
2023/10/23 04:58:26;;;;;;;28.77;11.63;;;10.80;95.00;;;11.96;71.24;101293.66;3082751;46;20537;-68
2023/10/23 05:00:55;;;;;;;21.00;10.90;;;10.70;95.50;;;11.87;71.58;101294.66;3082071;46;20565;-67
2023/10/23 05:03:23;;;;;;;21.97;10.23;;;10.50;95.20;;;11.78;71.91;101290.41;3081935;46;20468;-67
2023/10/23 05:05:52;;;;;;;24.13;10.90;;;10.50;95.40;;;11.64;71.88;101296.34;3082505;46;20552;-68
2023/10/23 05:08:20;;;;;;;17.10;9.30;;;10.40;95.40;;;11.54;72.24;101296.53;3082607;46;20457;-63
2023/10/23 05:10:48;;;;;;;12.03;8.83;;;10.30;95.40;;;11.47;72.21;101297.34;3081384;46;20463;-66
2023/10/23 05:13:17;;;;;;;13.77;9.40;;;10.20;95.50;;;11.45;72.57;101305.44;3081928;46;20431;-68
2023/10/23 05:15:45;;;;;;;12.87;9.73;;;10.10;95.70;;;11.45;72.63;101299.34;3082251;46;21121;-67
2023/10/23 05:18:14;;;;;;;11.23;9.57;;;10.10;95.90;;;11.44;72.66;101297.69;3082500;46;20560;-67
2023/10/23 05:20:42;;;;;;;14.87;10.07;;;10.00;96.00;;;11.41;72.56;101298.84;3080108;46;21570;-66
2023/10/23 05:23:10;;;;;;;12.30;9.57;;;10.00;96.00;;;11.39;72.85;101292.06;3080797;46;20427;-66
2023/10/23 05:25:39;;;;;;;13.53;10.10;;;10.00;96.00;;;11.39;72.55;101299.97;3082245;46;20553;-69
2023/10/23 05:28:07;;;;;;;15.27;10.20;;;9.90;96.60;;;11.35;72.54;101293.41;3082193;46;20452;-66
2023/10/23 05:30:35;;;;;;;13.70;9.27;;;9.90;96.60;;;11.32;72.91;101304.28;3081537;46;20471;-67
2023/10/23 05:33:04;;;;;;;12.37;8.83;;;9.90;96.60;;;11.30;72.77;101306.25;3082119;46;20431;-67
2023/10/23 05:35:32;;;;;;;11.37;9.40;;;9.80;96.70;;;11.28;72.67;101302.97;3082337;46;20459;-67
2023/10/23 05:38:01;;;;;;;17.23;9.77;;;9.80;96.70;;;11.25;72.86;101304.13;3081745;46;20452;-63
2023/10/23 05:40:29;;;;;;;12.50;10.20;;;9.80;96.70;;;11.23;72.86;101298.19;3081218;46;20443;-68
2023/10/23 05:42:57;;;;;;;12.73;9.47;;;9.80;96.70;;;11.22;72.67;101298.38;3082089;46;20434;-68
2023/10/23 05:45:26;;;;;;;13.80;9.07;;;9.70;96.70;;;11.20;72.73;101300.31;3081957;46;20492;-66
2023/10/23 05:47:54;;;;;;;10.70;9.30;;;9.70;96.70;;;11.20;72.69;101295.03;3082214;46;20456;-65
2023/10/23 05:50:23;;;;;;;10.40;9.30;;;9.70;96.80;;;11.22;72.81;101303.63;3080834;46;20614;-66
2023/10/23 05:52:51;;;;;;;12.80;9.67;;;9.70;96.90;;;11.30;73.24;101311.53;3081663;46;20467;-65
2023/10/23 05:55:20;;;;;;;12.80;10.00;;;9.70;97.30;;;11.35;72.87;101314.50;3081950;46;20459;-66
2023/10/23 05:57:49;;;;;;;12.07;10.17;;;9.70;97.30;;;11.37;72.78;101312.50;3081800;46;20427;-67
2023/10/23 06:00:18;;;;;;;11.40;9.63;;;9.80;97.20;;;11.40;72.69;101323.56;3080505;46;20468;-67
2023/10/23 06:02:46;;;;;;;12.17;8.73;;;9.80;97.20;;;11.41;72.28;101327.81;3081781;46;20447;-66
2023/10/23 06:05:15;;;;;;;11.20;10.00;;;9.80;97.00;;;11.42;72.22;101333.94;3082125;46;21024;-66
2023/10/23 06:07:43;;;;;;;11.27;9.37;;;9.80;96.90;;;11.39;72.04;101342.16;3081729;46;20480;-65
2023/10/23 06:10:12;;;;;;;14.30;9.30;;;9.80;96.80;;;11.34;72.02;101344.44;3080318;46;20528;-66
2023/10/23 06:12:40;;;;;;;15.53;9.60;;;9.80;96.70;;;11.28;72.11;101340.69;3081539;46;20551;-64
2023/10/23 06:15:10;;;;;;;11.97;9.10;;;9.80;96.50;;;11.20;72.09;101353.00;3081964;46;20432;-67
2023/10/23 06:17:38;;;;;;;27.40;9.83;;;9.80;96.50;;;11.13;72.27;101359.91;3081628;46;20525;-65
2023/10/23 06:20:07;;;;;;;18.37;9.70;;;9.70;96.40;;;11.03;72.45;101367.16;3078783;46;20459;-68
2023/10/23 06:22:36;;;;;;;29.13;9.30;;;9.70;96.40;;;10.96;72.76;101368.81;3080468;46;20424;-66
2023/10/23 06:25:05;;;;;;;20.73;9.13;;;9.60;96.40;;;10.93;72.78;101369.13;3081528;46;21010;-67
2023/10/23 06:27:33;;;;;;;14.73;9.07;;;9.50;96.50;;;10.86;72.89;101366.31;3081376;46;21054;-66
2023/10/23 06:30:02;;;;;;;12.20;9.10;;;9.50;96.50;;;10.82;73.23;101371.06;3081122;46;20498;-67
2023/10/23 06:32:34;;;;;;;27.13;10.27;;;9.50;96.90;;;10.81;72.92;101369.44;3081303;46;20427;-67
2023/10/23 06:35:04;;;;;;;15.20;9.20;;;9.40;96.70;;;10.83;73.40;101372.72;3081609;46;20435;-65
2023/10/23 06:37:32;;;;;;;14.00;9.37;;;9.40;96.90;;;10.80;73.51;101370.41;3081079;46;20427;-64
2023/10/23 06:40:01;;;;;;;16.50;10.13;;;9.40;97.00;;;10.79;73.49;101376.63;3080565;46;20445;-66
2023/10/23 06:42:30;;;;;;;13.37;10.60;;;9.30;97.30;;;10.78;73.54;101380.28;3081383;46;20535;-66
2023/10/23 06:44:58;;;;;;;14.00;8.80;;;9.30;97.00;;;10.79;73.43;101378.47;3081194;46;20427;-66
2023/10/23 06:47:27;;;;;;;17.07;10.67;;;9.30;97.10;;;10.83;73.58;101383.25;3081524;46;21129;-67
2023/10/23 06:49:55;;;;;;;16.33;9.50;;;9.30;97.20;;;10.85;73.30;101386.53;3080641;46;21090;-67
2023/10/23 06:52:24;;;;;;;17.27;9.67;;;9.30;97.20;;;10.85;73.23;101386.53;3081390;46;20436;-66
2023/10/23 06:54:52;;;;;;;20.20;10.63;;;9.30;97.10;;;10.84;73.21;101390.16;3081886;46;20553;-68
2023/10/23 06:57:21;;;;;;;9.97;8.87;;;9.30;97.10;;;10.87;73.12;101395.09;3081952;46;20553;-66
2023/10/23 06:59:50;;;;;;;16.83;9.57;;;9.30;97.20;;;10.91;73.14;101400.06;3080519;46;20528;-67
2023/10/23 07:02:18;;;;;;;15.13;9.73;;;9.30;97.20;;;10.95;73.06;101398.75;3081244;46;20521;-64
2023/10/23 07:04:47;;;;;;;13.13;8.90;;;9.30;97.20;;;11.01;73.13;101400.72;3081277;46;20489;-66
2023/10/23 07:07:16;;;;;;;10.20;8.53;;;9.30;97.30;;;11.10;73.22;101405.84;3081315;46;20451;-66
2023/10/23 07:09:58;;;;;;;11.23;9.10;;;9.40;97.50;;;11.19;72.86;101402.28;3080271;46;21108;-63
2023/10/23 07:12:27;;;;;;;15.03;10.37;;;9.40;97.60;;;11.28;73.00;101403.94;3081173;46;20427;-66
2023/10/23 07:14:56;;;;;;;15.10;10.63;;;9.50;97.70;;;11.38;72.93;101393.22;3081154;46;20525;-67
2023/10/23 07:17:25;;;;;;;16.50;9.67;;;9.50;97.70;;;11.43;72.24;101396.22;3081409;46;20427;-66
2023/10/23 07:19:53;;;;;;;13.53;8.47;;;9.70;97.50;;;11.46;72.30;101395.84;3080131;46;20442;-68
2023/10/23 07:22:22;;;;;;;15.10;9.03;;;9.70;97.40;;;11.51;72.45;101404.09;3080214;46;21103;-66
2023/10/23 07:24:54;;;;;;;15.63;9.50;;;9.80;97.30;;;11.57;72.21;101401.66;3081069;46;20505;-66
2023/10/23 07:27:22;;;;;;;15.57;9.70;;;9.80;97.30;;;11.63;71.97;101397.50;3081426;46;20491;-65
2023/10/23 07:29:51;;;;;;;11.83;8.33;;;9.80;97.20;;;11.72;72.20;101396.56;3080074;46;20530;-64
2023/10/23 07:32:19;;;;;;;11.73;8.80;;;9.90;97.30;;;11.80;72.00;101398.38;3080910;46;20427;-66
2023/10/23 07:34:50;;;;;;;18.37;9.47;;;10.00;96.80;;;11.83;71.38;101398.88;3081272;46;21077;-69
2023/10/23 07:37:19;;;;;;;29.63;9.90;;;10.00;96.60;;;11.81;70.72;101411.41;3080969;46;20428;-68
2023/10/23 07:39:47;;;;;;;17.33;9.70;;;10.00;96.20;;;11.77;71.10;101411.88;3080199;46;20455;-68
2023/10/23 07:42:16;;;;;;;12.77;10.37;;;10.10;96.20;;;11.77;71.37;101410.06;3080889;46;20427;-67
2023/10/23 07:44:45;;;;;;;24.23;10.60;;;10.10;96.20;;;11.82;71.44;101418.31;3079291;46;20501;-66
2023/10/23 07:47:13;;;;;;;30.47;10.80;;;10.10;96.40;;;11.84;70.91;101426.88;3079034;46;20456;-68
2023/10/23 07:49:42;;;;;;;14.83;10.93;;;10.10;96.20;;;11.81;70.84;101421.97;3079594;46;21015;-66
2023/10/23 07:52:10;;;;;;;17.10;10.57;;;10.10;96.10;;;11.81;71.28;101421.97;3080672;46;20427;-66
2023/10/23 07:54:38;;;;;;;17.47;9.77;;;10.10;96.10;;;11.84;71.34;101413.69;3080856;46;21095;-66
2023/10/23 07:57:07;;;;;;;20.37;10.87;;;10.10;96.30;;;11.88;71.36;101417.66;3080050;46;20452;-66
2023/10/23 07:59:35;;;;;;;44.63;11.53;;;10.10;96.20;;;11.84;70.96;101413.69;3079921;46;20435;-66
2023/10/23 08:02:04;;;;;;;39.93;11.83;;;10.10;96.10;;;11.80;71.31;101420.28;3080796;46;20520;-66
2023/10/23 08:04:33;;;;;;;39.70;11.93;;;10.20;96.00;;;11.73;71.29;101421.13;3081012;46;20518;-67
2023/10/23 08:07:01;;;;;;;42.67;11.93;;;10.10;95.90;;;11.70;71.78;101424.06;3081125;46;20428;-67
2023/10/23 08:09:29;;;;;;;11.80;10.50;;;10.10;96.10;;;11.73;71.75;101419.31;3080300;46;21012;-66
2023/10/23 08:11:58;;;;;;;17.33;11.70;;;10.10;96.20;;;11.86;72.37;101416.97;3080793;46;20490;-67
2023/10/23 08:14:26;;;;;;;14.63;11.40;;;10.10;96.60;;;12.01;71.99;101414.50;3080885;46;20431;-68
2023/10/23 08:16:55;;;;;;;13.40;10.07;;;10.20;96.80;;;12.11;71.73;101423.91;3080548;46;20430;-67
2023/10/23 08:19:23;;;;;;;13.70;11.80;;;10.20;96.80;;;12.21;71.44;101421.91;3079047;46;20459;-66
2023/10/23 08:21:52;;;;;;;34.03;11.93;;;10.30;96.80;;;12.24;71.04;101424.19;3079755;46;20525;-68
2023/10/23 08:24:21;;;;;;;33.80;12.40;;;10.40;96.50;;;12.23;70.73;101417.28;3080565;46;20518;-67
2023/10/23 08:26:50;;;;;;;26.70;10.20;;;10.40;96.30;;;12.18;70.57;101419.59;3079909;46;20431;-67
2023/10/23 08:29:18;;;;;;;32.87;12.27;;;10.50;96.10;;;12.18;70.87;101424.88;3079424;46;20495;-68
2023/10/23 08:31:47;;;;;;;14.40;10.53;;;10.50;96.10;;;12.22;70.67;101426.16;3079634;46;20464;-67
2023/10/23 08:34:20;;;;;;;44.83;12.67;;;10.40;96.10;;;12.31;70.30;101428.81;3080115;46;20426;-66
2023/10/23 08:36:49;;;;;;;18.83;10.90;;;10.50;96.10;;;12.28;70.38;101429.13;3079686;46;20451;-67
2023/10/23 08:39:19;;;;;;;40.77;11.23;;;10.50;96.00;;;12.30;70.47;101433.25;3079292;46;21016;-66
2023/10/23 08:41:48;;;;;;;31.30;12.97;;;10.50;96.10;;;12.33;69.95;101432.09;3081018;46;21086;-66
2023/10/23 08:44:17;;;;;;;18.70;11.97;;;10.50;95.90;;;12.35;70.43;101430.09;3081666;46;20434;-66
2023/10/23 08:46:46;;;;;;;23.60;12.57;;;10.50;95.90;;;12.38;69.95;101424.50;3082391;46;20431;-67
2023/10/23 08:49:14;;;;;;;41.00;13.93;;;10.50;95.80;;;12.32;69.61;101433.06;3082386;46;20593;-67
2023/10/23 08:51:49;;;;;;;58.20;14.00;;;10.50;95.60;;;12.18;69.87;101427.50;3082689;46;21118;-66
2023/10/23 08:54:20;;;;;;;37.03;13.60;;;10.60;95.50;;;12.09;70.50;101425.88;3082890;46;20435;-67
2023/10/23 08:57:02;;;;;;;24.70;19.50;;;10.50;95.50;;;12.06;70.34;101431.47;3082862;46;20492;-64
2023/10/23 08:59:31;;;;;;;33.53;16.10;;;10.50;95.60;;;12.14;70.53;101431.47;3081472;43;20487;-67
2023/10/23 09:01:59;;;;;;;25.63;14.77;;;10.50;95.90;;;12.23;70.97;101438.38;3082465;46;20426;-66
2023/10/23 09:04:29;;;;;;;22.07;16.90;;;10.50;96.00;;;12.31;70.88;101434.91;3081048;46;20443;-66
2023/10/23 09:07:00;;;;;;;16.33;12.63;;;10.50;96.20;;;12.44;70.48;101437.00;3082109;46;21081;-66
2023/10/23 09:09:28;;;;;;;22.77;14.10;;;10.60;96.30;;;12.50;70.53;101438.97;3081781;46;20477;-66
2023/10/23 09:11:57;;;;;;;35.83;14.90;;;10.60;96.30;;;12.50;70.19;101433.72;3083339;46;20553;-66
2023/10/23 09:14:31;;;;;;;20.70;15.23;;;10.70;96.10;;;12.46;70.44;101433.19;3082585;46;21019;-66
2023/10/23 09:17:00;;;;;;;22.30;15.40;;;10.70;96.00;;;12.46;70.71;101438.47;3082749;46;20428;-67
2023/10/23 09:19:34;;;;;;;24.63;15.27;;;10.70;96.10;;;12.49;70.63;101432.03;3081161;46;21065;-66
2023/10/23 09:22:04;;;;;;;20.87;15.00;;;10.70;96.10;;;12.52;70.70;101434.34;3082268;46;20530;-66
2023/10/23 09:24:32;;;;;;;25.73;16.33;;;10.70;96.10;;;12.55;70.61;101431.38;3082459;46;20486;-65
2023/10/23 09:27:01;;;;;;;21.83;15.27;;;10.80;96.30;;;12.55;70.52;101437.47;3081967;43;21123;-68
2023/10/23 09:29:29;;;;;;;27.27;13.90;;;10.80;96.20;;;12.48;70.83;101443.63;3080800;46;20473;-64
2023/10/23 09:31:58;;;;;;;28.23;15.60;;;10.80;96.00;;;12.45;70.88;101446.59;3082203;46;20456;-66
2023/10/23 09:34:29;;;;;;;34.63;15.13;;;10.80;96.00;;;12.41;71.24;101434.72;3081845;46;20554;-67
2023/10/23 09:36:57;;;;;;;17.10;14.00;;;10.80;96.20;;;12.48;71.09;101451.53;3081565;46;20456;-67
2023/10/23 09:39:26;;;;;;;36.33;15.70;;;10.80;96.20;;;12.50;71.16;101445.09;3081341;46;20474;-66
2023/10/23 09:41:56;;;;;;;22.10;14.90;;;10.80;96.30;;;12.52;71.19;101444.91;3081728;46;21077;-69
2023/10/23 09:44:27;;;;;;;20.87;14.70;;;10.80;96.40;;;12.52;71.51;101429.91;3081825;46;20452;-67
2023/10/23 09:46:58;;;;;;;25.50;15.33;;;10.80;96.30;;;12.57;71.35;101429.38;3081581;46;20590;-68
2023/10/23 09:49:29;;;;;;;38.23;15.47;;;10.80;96.50;;;12.59;71.34;101432.69;3079986;46;20435;-68
2023/10/23 09:52:00;;;;;;;25.17;15.73;;;10.90;96.40;;;12.62;71.30;101432.34;3079988;46;20478;-66
2023/10/23 09:54:31;;;;;;;24.70;15.30;;;10.90;96.40;;;12.57;71.07;101434.66;3079582;46;21129;-68
2023/10/23 09:57:05;;;;;;;18.93;14.73;;;10.90;96.20;;;12.61;71.25;101435.97;3080445;46;20447;-67
2023/10/23 09:59:55;;;;;;;21.73;13.90;;;10.90;96.30;;;12.75;71.05;101437.91;3080338;46;20455;-66
2023/10/23 10:02:33;;;;;;;18.37;14.53;;;10.90;96.50;;;12.92;70.97;101439.47;3080315;46;21112;-67
2023/10/23 10:05:08;;;;;;;21.87;16.23;;;11.00;96.70;;;13.05;70.82;101438.94;3081847;46;20427;-68
2023/10/23 10:08:02;;;;;;;20.47;17.10;;;11.10;96.70;;;13.13;70.78;101437.09;3081954;46;21122;-66
2023/10/23 10:10:32;;;;;;;20.73;17.13;;;11.20;96.70;;;13.32;70.67;101436.66;3079861;46;20488;-66
2023/10/23 10:13:04;;;;;;;23.07;16.83;;;11.30;96.90;;;13.43;69.96;101436.22;3081918;46;20467;-67
2023/10/23 10:15:33;;;;;;;23.70;16.37;;;11.40;96.60;;;13.50;69.92;101428.44;3081840;46;20553;-66